createdAt,value
2018-03-16T00:01:09.387Z,54.76
2018-03-16T00:03:36.946Z,57.82
2018-03-16T00:06:04.515Z,60.15
2018-03-16T00:08:32.123Z,59.22
2018-03-16T00:10:59.689Z,57.34
2018-03-16T00:13:29.146Z,56.22
2018-03-16T00:15:56.708Z,56.18
2018-03-16T00:18:24.313Z,55.98
2018-03-16T00:20:51.880Z,56.76
2018-03-16T00:23:19.484Z,60.19
2018-03-16T00:25:47.092Z,59.79
2018-03-16T00:28:14.691Z,58.35
2018-03-16T00:30:42.275Z,57.56
2018-03-16T00:33:10.686Z,56.98
2018-03-16T00:35:38.861Z,56.48
2018-03-16T00:38:06.467Z,57.17
2018-03-16T00:40:34.016Z,57.09
2018-03-16T00:43:02.084Z,58.05
2018-03-16T00:45:30.388Z,58.42
2018-03-16T00:47:57.992Z,57.46
2018-03-16T00:50:25.553Z,56.98
2018-03-16T00:52:53.773Z,59.56
2018-03-16T00:55:21.911Z,59.65
2018-03-16T00:57:49.508Z,60.41
2018-03-16T01:00:17.112Z,59.77
2018-03-16T01:02:45.412Z,59.16
2018-03-16T01:05:13.007Z,58.23
2018-03-16T01:07:40.580Z,58.79
2018-03-16T01:10:08.123Z,61.47
2018-03-16T01:12:35.948Z,63.04
2018-03-16T01:15:03.576Z,61.78
2018-03-16T01:17:31.576Z,59.57
2018-03-16T01:19:59.165Z,58.77
2018-03-16T01:22:26.732Z,57.97
2018-03-16T01:24:54.560Z,58.14
2018-03-16T01:27:22.147Z,58.58
2018-03-16T01:29:49.755Z,57.99
2018-03-16T01:32:17.799Z,57.39
2018-03-16T01:34:45.351Z,56.87
2018-03-16T01:37:12.950Z,55.88
2018-03-16T01:39:40.504Z,55.92
2018-03-16T01:42:08.114Z,55.76
2018-03-16T01:44:35.675Z,57.02
2018-03-16T01:47:03.268Z,58.88
2018-03-16T01:49:30.802Z,61.51
2018-03-16T01:51:58.413Z,61.74
2018-03-16T01:54:25.970Z,59.45
2018-03-16T01:56:53.545Z,57.52
2018-03-16T01:59:21.145Z,58.14
2018-03-16T02:01:48.750Z,61.09
2018-03-16T02:04:16.351Z,62.97
2018-03-16T02:06:43.918Z,62.64
2018-03-16T02:09:11.467Z,63.65
2018-03-16T02:11:39.054Z,64.67
2018-03-16T02:14:06.603Z,65.38
2018-03-16T02:16:34.155Z,65.72
2018-03-16T02:19:01.758Z,65.35
2018-03-16T02:21:29.383Z,64.17
2018-03-16T02:23:57.596Z,65.34
2018-03-16T02:26:26.147Z,65.42
2018-03-16T02:28:54.828Z,65.69
2018-03-16T02:31:23.263Z,65.29
2018-03-16T02:33:50.860Z,63.27
2018-03-16T02:36:18.406Z,61.09
2018-03-16T02:38:45.992Z,59.68
2018-03-16T02:41:13.584Z,60.16
2018-03-16T02:43:41.735Z,62.27
2018-03-16T02:46:10.006Z,64.23
2018-03-16T02:48:37.571Z,65.03
2018-03-16T02:51:05.186Z,64.96
2018-03-16T02:53:32.752Z,64.86
2018-03-16T02:56:00.339Z,63.90
2018-03-16T02:58:28.488Z,61.83
2018-03-16T03:00:56.090Z,61.98
2018-03-16T03:03:23.640Z,63.80
2018-03-16T03:05:51.244Z,65.09
2018-03-16T03:08:19.924Z,65.00
2018-03-16T03:10:47.488Z,65.51
2018-03-16T03:13:15.089Z,65.79
2018-03-16T03:15:42.635Z,65.86
2018-03-16T03:18:10.228Z,65.64
2018-03-16T03:20:37.779Z,65.41
2018-03-16T03:23:05.384Z,65.89
2018-03-16T03:25:33.347Z,65.05
2018-03-16T03:28:00.938Z,65.06
2018-03-16T03:30:28.486Z,65.58
2018-03-16T03:32:56.039Z,64.75
2018-03-16T03:35:23.623Z,64.87
2018-03-16T03:37:51.179Z,64.81
2018-03-16T03:40:18.781Z,65.14
2018-03-16T03:42:46.810Z,64.89
2018-03-16T03:45:14.407Z,65.22
2018-03-16T03:47:41.976Z,65.92
2018-03-16T03:50:09.581Z,65.25
2018-03-16T03:52:37.525Z,64.90
2018-03-16T03:55:05.444Z,64.90
2018-03-16T03:57:32.991Z,64.79
2018-03-16T04:00:02.553Z,65.01
2018-03-16T04:02:30.160Z,65.24
2018-03-16T04:04:58.218Z,65.21
2018-03-16T04:07:26.086Z,63.57
2018-03-16T04:09:53.687Z,63.42
2018-03-16T04:12:21.281Z,64.11
2018-03-16T04:14:48.838Z,64.89
2018-03-16T04:17:16.437Z,65.34
2018-03-16T04:19:44.768Z,63.38
2018-03-16T04:22:12.873Z,63.11
2018-03-16T04:24:40.908Z,63.51
2018-03-16T04:27:08.499Z,63.59
2018-03-16T04:29:36.782Z,64.41
2018-03-16T04:32:05.227Z,62.62
2018-03-16T04:34:33.625Z,60.91
2018-03-16T04:37:01.225Z,59.87
2018-03-16T04:39:29.948Z,58.82
2018-03-16T04:41:57.548Z,57.91
2018-03-16T04:44:25.147Z,58.03
2018-03-16T04:46:53.668Z,57.51
2018-03-16T04:49:21.263Z,57.71
2018-03-16T04:51:48.822Z,56.94
2018-03-16T04:54:16.872Z,56.47
2018-03-16T04:56:44.803Z,56.22
2018-03-16T04:59:12.416Z,57.02
2018-03-16T05:01:40.029Z,56.68
2018-03-16T05:04:07.596Z,55.83
2018-03-16T05:06:35.444Z,55.06
2018-03-16T05:09:03.035Z,55.22
2018-03-16T05:11:31.795Z,57.17
2018-03-16T05:13:59.407Z,56.67
2018-03-16T05:16:27.004Z,55.80
2018-03-16T05:18:54.606Z,55.40
2018-03-16T05:21:22.637Z,55.59
2018-03-16T05:23:50.194Z,59.30
2018-03-16T05:26:17.779Z,61.27
2018-03-16T05:28:45.363Z,62.66
2018-03-16T05:31:12.951Z,63.27
2018-03-16T05:33:40.526Z,64.20
2018-03-16T05:36:08.606Z,63.15
2018-03-16T05:38:36.193Z,62.03
2018-03-16T05:41:03.955Z,61.21
2018-03-16T05:43:31.556Z,61.40
2018-03-16T05:45:59.098Z,61.45
2018-03-16T05:48:26.757Z,61.09
2018-03-16T05:50:54.308Z,60.90
2018-03-16T05:53:21.926Z,61.27
2018-03-16T05:55:49.492Z,61.87
2018-03-16T05:58:17.103Z,62.06
2018-03-16T06:00:44.723Z,62.31
2018-03-16T06:03:12.479Z,60.30
2018-03-16T06:05:40.092Z,60.41
2018-03-16T06:08:07.640Z,60.46
2018-03-16T06:10:35.198Z,60.96
2018-03-16T06:13:02.809Z,60.77
2018-03-16T06:15:33.310Z,60.63
2018-03-16T06:18:01.273Z,60.81
2018-03-16T06:20:29.576Z,60.75
2018-03-16T06:22:57.146Z,62.11
2018-03-16T06:25:24.713Z,61.74
2018-03-16T06:27:52.317Z,62.25
2018-03-16T06:30:20.556Z,62.51
2018-03-16T06:32:48.662Z,61.54
2018-03-16T06:35:16.603Z,61.07
2018-03-16T06:37:44.963Z,60.47
2018-03-16T06:40:12.584Z,60.34
2018-03-16T06:42:40.782Z,59.96
2018-03-16T06:45:09.037Z,60.03
2018-03-16T06:47:36.705Z,60.65
2018-03-16T06:50:04.525Z,60.62
2018-03-16T06:52:32.121Z,60.50
2018-03-16T06:55:00.230Z,58.83
2018-03-16T06:57:28.553Z,59.33
2018-03-16T06:59:56.139Z,59.49
2018-03-16T07:02:23.698Z,60.00
2018-03-16T07:04:51.895Z,59.28
2018-03-16T07:07:19.681Z,59.82
2018-03-16T07:09:47.279Z,59.65
2018-03-16T07:12:14.841Z,59.35
2018-03-16T07:14:42.747Z,58.96
2018-03-16T07:17:10.552Z,57.48
2018-03-16T07:19:38.709Z,57.08
2018-03-16T07:22:06.342Z,57.82
2018-03-16T07:24:34.150Z,57.50
2018-03-16T07:27:01.913Z,57.08
2018-03-16T07:29:29.498Z,58.08
2018-03-16T07:31:57.104Z,57.94
2018-03-16T07:34:24.708Z,57.55
2018-03-16T07:36:52.325Z,56.43
2018-03-16T07:39:19.909Z,55.54
2018-03-16T07:41:48.048Z,54.74
2018-03-16T07:44:15.658Z,54.13
2018-03-16T07:46:43.219Z,53.09
2018-03-16T07:49:10.921Z,54.69
2018-03-16T07:51:38.471Z,55.04
2018-03-16T07:54:06.079Z,54.45
2018-03-16T07:56:33.701Z,54.26
2018-03-16T07:59:01.299Z,55.75
2018-03-16T08:01:28.922Z,55.09
2018-03-16T08:03:56.513Z,54.41
2018-03-16T08:06:24.101Z,54.22
2018-03-16T08:08:51.707Z,53.87
2018-03-16T08:11:19.302Z,53.26
2018-03-16T08:13:46.907Z,52.80
2018-03-16T08:16:16.068Z,52.74
2018-03-16T08:18:44.035Z,52.54
2018-03-16T08:21:11.635Z,52.24
2018-03-16T08:23:39.239Z,52.17
2018-03-16T08:26:07.008Z,51.83
2018-03-16T08:28:34.610Z,52.32
2018-03-16T08:31:02.180Z,54.26
2018-03-16T08:33:29.972Z,55.09
2018-03-16T08:35:57.578Z,55.46
2018-03-16T08:38:25.185Z,55.76
2018-03-16T08:40:52.775Z,54.99
2018-03-16T08:43:20.337Z,55.43
2018-03-16T08:45:48.757Z,55.81
2018-03-16T08:48:16.346Z,55.56
2018-03-16T08:50:44.036Z,55.55
2018-03-16T08:53:11.644Z,55.55
2018-03-16T08:55:39.201Z,55.64
2018-03-16T08:58:06.976Z,55.25
2018-03-16T09:00:34.923Z,54.75
2018-03-16T09:03:02.504Z,54.69
2018-03-16T09:05:30.088Z,54.28
2018-03-16T09:07:57.682Z,54.57
2018-03-16T09:10:26.249Z,54.08
2018-03-16T09:12:53.829Z,53.47
2018-03-16T09:15:21.439Z,53.09
2018-03-16T09:17:49.309Z,53.02
2018-03-16T09:20:16.919Z,52.28
2018-03-16T09:22:44.512Z,52.73
2018-03-16T09:25:12.124Z,51.70
2018-03-16T09:27:39.726Z,52.27
2018-03-16T09:30:07.337Z,51.93
2018-03-16T09:32:34.952Z,50.84
2018-03-16T09:35:02.544Z,50.15
2018-03-16T09:37:30.314Z,49.70
2018-03-16T09:39:57.869Z,49.06
2018-03-16T09:42:25.424Z,49.31
2018-03-16T09:44:53.029Z,49.19
2018-03-16T09:47:20.663Z,48.85
2018-03-16T09:49:48.508Z,48.48
2018-03-16T09:52:16.104Z,48.45
2018-03-16T09:54:55.731Z,48.09
2018-03-16T09:57:23.325Z,48.26
2018-03-16T09:59:51.441Z,48.37
2018-03-16T10:02:19.751Z,48.12
2018-03-16T10:04:47.484Z,47.70
2018-03-16T10:07:15.364Z,47.44
2018-03-16T10:09:42.928Z,47.29
2018-03-16T10:12:11.293Z,47.83
2018-03-16T10:14:38.911Z,47.78
2018-03-16T10:17:06.463Z,47.58
2018-03-16T10:19:34.095Z,48.04
2018-03-16T10:22:02.067Z,48.16
2018-03-16T10:24:30.285Z,48.50
2018-03-16T10:26:58.058Z,48.85
2018-03-16T10:29:26.114Z,48.51
2018-03-16T10:31:53.724Z,48.93
2018-03-16T10:34:21.403Z,49.26
2018-03-16T10:36:49.012Z,49.37
2018-03-16T10:39:16.566Z,48.76
2018-03-16T10:41:44.167Z,48.74
2018-03-16T10:44:11.780Z,49.20
2018-03-16T10:46:39.418Z,49.53
2018-03-16T10:49:07.311Z,49.69
2018-03-16T10:51:34.923Z,49.47
2018-03-16T10:54:02.527Z,49.20
2018-03-16T10:56:30.083Z,49.09
2018-03-16T10:58:57.688Z,49.11
2018-03-16T11:01:25.339Z,48.99
2018-03-16T11:03:53.093Z,48.81
2018-03-16T11:06:26.328Z,48.69
2018-03-16T11:08:53.888Z,48.79
2018-03-16T11:11:21.486Z,48.58
2018-03-16T11:13:49.358Z,48.57
2018-03-16T11:16:16.976Z,48.55
2018-03-16T11:18:44.572Z,48.69
2018-03-16T11:21:12.972Z,49.18
2018-03-16T11:23:40.746Z,48.72
2018-03-16T11:26:09.093Z,48.55
2018-03-16T11:28:36.889Z,48.52
2018-03-16T11:31:04.456Z,48.07
2018-03-16T11:33:32.485Z,47.94
2018-03-16T11:36:00.182Z,47.79
2018-03-16T11:38:27.777Z,47.67
2018-03-16T11:40:56.008Z,47.62
2018-03-16T11:43:23.620Z,47.53
2018-03-16T11:45:51.275Z,47.65
2018-03-16T11:48:18.984Z,47.61
2018-03-16T11:50:46.605Z,47.69
2018-03-16T11:53:14.197Z,47.82
2018-03-16T11:55:41.807Z,48.04
2018-03-16T11:58:09.376Z,48.08
2018-03-16T12:00:37.324Z,48.10
2018-03-16T12:03:04.950Z,47.82
2018-03-16T12:05:32.860Z,47.75
2018-03-16T12:08:00.464Z,47.68
2018-03-16T12:10:28.057Z,47.66
2018-03-16T12:12:55.656Z,47.62
2018-03-16T12:15:23.435Z,47.75
2018-03-16T12:17:51.067Z,47.76
2018-03-16T12:20:18.661Z,47.82
2018-03-16T12:22:46.259Z,47.90
2018-03-16T12:25:13.818Z,47.98
2018-03-16T12:27:41.415Z,47.76
2018-03-16T12:30:08.987Z,47.65
2018-03-16T12:32:36.644Z,47.34
2018-03-16T12:35:04.259Z,47.37
2018-03-16T12:37:32.792Z,47.48
2018-03-16T12:40:00.389Z,47.47
2018-03-16T12:42:28.004Z,47.50
2018-03-16T12:44:55.611Z,47.26
2018-03-16T12:47:23.491Z,47.46
2018-03-16T12:49:52.169Z,47.24
2018-03-16T12:52:19.793Z,47.26
2018-03-16T12:54:47.356Z,47.36
2018-03-16T12:57:14.947Z,47.56
2018-03-16T12:59:42.555Z,47.62
2018-03-16T13:02:10.364Z,47.85
2018-03-16T13:04:38.405Z,47.81
2018-03-16T13:07:06.004Z,47.90
2018-03-16T13:09:33.583Z,47.87
2018-03-16T13:12:01.588Z,47.89
2018-03-16T13:14:30.167Z,48.15
2018-03-16T13:16:58.283Z,48.16
2018-03-16T13:19:26.226Z,48.27
2018-03-16T13:21:53.837Z,48.22
2018-03-16T13:24:21.501Z,48.28
2018-03-16T13:26:50.027Z,48.39
2018-03-16T13:29:17.657Z,48.34
2018-03-16T13:31:45.222Z,48.47
2018-03-16T13:34:13.661Z,48.24
2018-03-16T13:36:41.270Z,47.71
2018-03-16T13:39:08.864Z,47.76
2018-03-16T13:41:36.799Z,48.09
2018-03-16T13:44:04.814Z,48.38
2018-03-16T13:46:32.416Z,48.03
2018-03-16T13:49:00.007Z,48.05
2018-03-16T13:51:27.631Z,48.29
2018-03-16T13:53:55.482Z,48.27
2018-03-16T13:56:23.874Z,48.33
2018-03-16T13:58:51.740Z,48.37
2018-03-16T14:01:19.550Z,48.48
2018-03-16T14:03:47.100Z,48.21
2018-03-16T14:06:14.717Z,48.07
2018-03-16T14:08:42.287Z,48.24
2018-03-16T14:11:09.868Z,47.99
2018-03-16T14:13:37.475Z,48.13
2018-03-16T14:16:05.089Z,48.05
2018-03-16T14:18:32.693Z,48.17
2018-03-16T14:21:00.257Z,47.79
2018-03-16T14:23:28.676Z,48.04
2018-03-16T14:25:56.548Z,48.27
2018-03-16T14:28:24.165Z,48.79
2018-03-16T14:30:52.694Z,49.11
2018-03-16T14:33:21.268Z,49.05
2018-03-16T14:35:49.107Z,48.87
2018-03-16T14:38:16.660Z,48.92
2018-03-16T14:40:44.306Z,48.93
2018-03-16T14:43:12.341Z,49.35
2018-03-16T14:45:39.956Z,48.79
2018-03-16T14:48:09.131Z,49.46
2018-03-16T14:50:36.733Z,49.81
2018-03-16T14:53:04.296Z,50.01
2018-03-16T14:55:32.110Z,49.96
2018-03-16T14:57:59.708Z,50.13
2018-03-16T15:00:27.531Z,50.15
2018-03-16T15:02:55.120Z,49.99
2018-03-16T15:05:22.733Z,50.11
2018-03-16T15:07:50.928Z,49.82
2018-03-16T15:10:19.306Z,49.78
2018-03-16T15:12:48.300Z,49.74
2018-03-16T15:15:16.688Z,49.89
2018-03-16T15:17:44.252Z,49.74
2018-03-16T15:20:12.205Z,49.85
2018-03-16T15:22:39.751Z,49.64
2018-03-16T15:25:07.325Z,49.74
2018-03-16T15:27:36.117Z,49.70
2018-03-16T15:30:03.723Z,49.72
2018-03-16T15:32:31.908Z,49.55
2018-03-16T15:34:59.451Z,49.43
2018-03-16T15:37:27.543Z,49.51
2018-03-16T15:39:55.149Z,49.51
2018-03-16T15:42:24.539Z,49.53
2018-03-16T15:44:52.861Z,49.55
2018-03-16T15:47:20.424Z,49.54
2018-03-16T15:49:48.661Z,49.59
2018-03-16T15:52:16.611Z,49.61
2018-03-16T15:54:44.180Z,49.69
2018-03-16T15:57:12.796Z,49.70
2018-03-16T15:59:40.753Z,49.83
2018-03-16T16:02:08.344Z,49.84
2018-03-16T16:04:36.277Z,49.89
2018-03-16T16:07:04.806Z,49.96
2018-03-16T16:09:32.772Z,50.35
2018-03-16T16:12:00.377Z,50.29
2018-03-16T16:14:28.355Z,50.89
2018-03-16T16:16:55.957Z,51.10
2018-03-16T16:19:24.636Z,51.24
2018-03-16T16:21:53.959Z,51.28
2018-03-16T16:24:21.591Z,51.27
2018-03-16T16:26:49.621Z,52.04
2018-03-16T16:29:17.225Z,51.96
2018-03-16T16:31:44.780Z,52.02
2018-03-16T16:34:12.492Z,53.18
2018-03-16T16:36:40.102Z,53.36
2018-03-16T16:39:08.633Z,53.65
2018-03-16T16:41:36.644Z,53.42
2018-03-16T16:44:04.593Z,53.55
2018-03-16T16:46:33.028Z,54.35
2018-03-16T16:49:00.582Z,54.51
2018-03-16T16:51:29.696Z,54.76
2018-03-16T16:53:57.624Z,54.80
2018-03-16T16:56:25.184Z,54.84
2018-03-16T16:58:53.236Z,54.52
2018-03-16T17:01:21.745Z,54.10
2018-03-16T17:03:50.265Z,54.07
2018-03-16T17:06:18.418Z,53.87
2018-03-16T17:08:45.967Z,54.47
2018-03-16T17:11:13.630Z,54.10
2018-03-16T17:13:41.196Z,53.42
2018-03-16T17:16:09.149Z,53.74
2018-03-16T17:18:36.740Z,53.48
2018-03-16T17:21:04.856Z,53.32
2018-03-16T17:23:32.912Z,53.15
2018-03-16T17:26:00.913Z,52.91
2018-03-16T17:28:28.912Z,52.72
2018-03-16T17:30:57.517Z,52.56
2018-03-16T17:33:26.505Z,52.46
2018-03-16T17:35:55.399Z,52.35
2018-03-16T17:38:23.230Z,52.21
2018-03-16T17:40:51.203Z,52.19
2018-03-16T17:43:20.165Z,52.45
2018-03-16T17:45:49.007Z,52.45
2018-03-16T17:48:16.954Z,52.39
2018-03-16T17:50:44.919Z,52.25
2018-03-16T17:53:12.524Z,52.25
2018-03-16T17:55:42.216Z,52.38
2018-03-16T17:58:10.346Z,53.16
2018-03-16T18:00:39.793Z,53.12
2018-03-16T18:03:07.967Z,53.16
2018-03-16T18:05:36.415Z,53.28
2018-03-16T18:08:04.581Z,53.26
2018-03-16T18:10:32.544Z,53.75
2018-03-16T18:13:00.749Z,54.25
2018-03-16T18:15:29.325Z,55.53
2018-03-16T18:17:56.875Z,55.25
2018-03-16T18:20:24.960Z,54.72
2018-03-16T18:22:53.819Z,54.32
2018-03-16T18:25:21.381Z,54.17
2018-03-16T18:27:49.231Z,54.09
2018-03-16T18:30:17.373Z,53.64
2018-03-16T18:32:45.733Z,54.11
2018-03-16T18:35:13.973Z,54.17
2018-03-16T18:37:41.946Z,54.27
2018-03-16T18:40:10.145Z,54.00
2018-03-16T18:42:37.976Z,54.35
2018-03-16T18:45:05.795Z,54.36
2018-03-16T18:47:33.605Z,54.67
2018-03-16T18:50:01.800Z,54.45
2018-03-16T18:52:29.894Z,55.10
2018-03-16T18:54:57.552Z,55.44
2018-03-16T18:57:26.876Z,56.80
2018-03-16T18:59:54.996Z,57.16
2018-03-16T19:02:22.980Z,56.76
2018-03-16T19:04:52.122Z,57.99
2018-03-16T19:07:20.103Z,57.23
2018-03-16T19:09:50.294Z,56.55
2018-03-16T19:12:18.518Z,56.21
2018-03-16T19:14:47.465Z,55.98
2018-03-16T19:17:16.278Z,55.68
2018-03-16T19:19:44.651Z,55.58
2018-03-16T19:22:14.654Z,55.76
2018-03-16T19:24:42.835Z,55.53
2018-03-16T19:27:11.157Z,55.27
2018-03-16T19:29:39.842Z,55.33
2018-03-16T19:32:09.293Z,57.14
2018-03-16T19:34:37.978Z,59.32
2018-03-16T19:37:07.621Z,60.15
2018-03-16T19:39:35.880Z,60.38
2018-03-16T19:42:04.770Z,61.37
2018-03-16T19:44:33.031Z,60.53
2018-03-16T19:47:01.244Z,60.38
2018-03-16T19:49:31.395Z,61.48
2018-03-16T19:51:59.708Z,63.41
2018-03-16T19:54:31.582Z,63.28
2018-03-16T19:57:03.942Z,63.97
2018-03-16T19:59:33.023Z,64.06
2018-03-16T20:02:01.198Z,64.50
2018-03-16T20:04:31.521Z,65.64
2018-03-16T20:07:06.250Z,66.36
2018-03-16T20:09:34.633Z,66.65
2018-03-16T20:12:02.892Z,64.58
2018-03-16T20:14:31.392Z,64.87
2018-03-16T20:17:00.589Z,64.53
2018-03-16T20:19:30.294Z,65.07
2018-03-16T20:21:58.367Z,66.27
2018-03-16T20:24:27.361Z,66.03
2018-03-16T20:26:56.031Z,64.43
2018-03-16T20:29:24.812Z,63.57
2018-03-16T20:31:52.943Z,63.11
2018-03-16T20:34:20.540Z,61.88
2018-03-16T20:36:49.201Z,63.51
2018-03-16T20:39:16.836Z,64.23
2018-03-16T20:41:44.485Z,62.83
2018-03-16T20:44:12.624Z,61.22
2018-03-16T20:46:41.047Z,63.09
2018-03-16T20:49:08.640Z,63.38
2018-03-16T20:51:36.228Z,64.18
2018-03-16T20:54:04.348Z,65.57
2018-03-16T20:56:32.315Z,66.39
2018-03-16T20:58:59.907Z,66.37
2018-03-16T21:01:28.296Z,66.11
2018-03-16T21:03:57.090Z,65.93
2018-03-16T21:06:25.358Z,64.37
2018-03-16T21:08:53.520Z,65.25
2018-03-16T21:11:21.120Z,66.81
2018-03-16T21:13:49.948Z,65.70
2018-03-16T21:16:17.544Z,64.44
2018-03-16T21:18:45.153Z,66.13
2018-03-16T21:21:12.927Z,64.64
2018-03-16T21:23:40.478Z,63.04
2018-03-16T21:26:08.079Z,64.01
2018-03-16T21:28:35.638Z,63.73
2018-03-16T21:31:04.315Z,61.97
2018-03-16T21:33:31.916Z,63.45
2018-03-16T21:35:59.459Z,63.89
2018-03-16T21:38:27.845Z,63.18
2018-03-16T21:40:55.410Z,64.84
2018-03-16T21:43:23.005Z,66.65
2018-03-16T21:45:50.565Z,67.34
2018-03-16T21:48:18.159Z,67.73
2018-03-16T21:50:46.558Z,67.32
2018-03-16T21:53:14.156Z,66.86
2018-03-16T21:55:42.643Z,66.17
2018-03-16T21:58:10.240Z,65.36
2018-03-16T22:00:37.828Z,65.11
2018-03-16T22:03:05.437Z,65.51
2018-03-16T22:05:33.028Z,66.01
2018-03-16T22:08:00.584Z,65.28
2018-03-16T22:10:28.175Z,64.01
2018-03-16T22:12:55.782Z,62.85
2018-03-16T22:15:23.383Z,61.71
2018-03-16T22:17:51.448Z,61.53
2018-03-16T22:20:19.037Z,60.98
2018-03-16T22:22:47.234Z,62.66
2018-03-16T22:25:14.844Z,62.22
2018-03-16T22:27:42.409Z,63.10
2018-03-16T22:30:09.999Z,62.41
2018-03-16T22:32:37.602Z,61.44
2018-03-16T22:35:05.208Z,60.71
2018-03-16T22:37:33.135Z,59.99
2018-03-16T22:40:01.044Z,61.26
2018-03-16T22:42:29.061Z,61.13
2018-03-16T22:44:57.196Z,60.13
2018-03-16T22:47:24.797Z,59.62
2018-03-16T22:49:52.376Z,59.43
2018-03-16T22:52:19.977Z,59.74
2018-03-16T22:54:47.535Z,59.39
2018-03-16T22:57:15.145Z,60.32
2018-03-16T22:59:43.639Z,61.83
2018-03-16T23:02:12.163Z,61.17
2018-03-16T23:04:39.738Z,61.59
2018-03-16T23:07:07.292Z,60.89
2018-03-16T23:09:34.879Z,60.20
2018-03-16T23:12:02.479Z,60.31
2018-03-16T23:14:30.031Z,64.75
2018-03-16T23:16:57.593Z,66.19
2018-03-16T23:19:25.194Z,65.27
2018-03-16T23:21:52.735Z,65.69
2018-03-16T23:24:21.125Z,66.30
2018-03-16T23:26:48.726Z,67.53
2018-03-16T23:29:16.705Z,66.19
2018-03-16T23:31:44.588Z,64.38
2018-03-16T23:34:12.242Z,63.00
2018-03-16T23:36:39.876Z,65.55
2018-03-16T23:39:07.428Z,66.96
2018-03-16T23:41:35.007Z,66.23
2018-03-16T23:44:03.257Z,68.07
2018-03-16T23:46:30.861Z,68.93
2018-03-16T23:48:59.093Z,68.88
2018-03-16T23:51:26.687Z,68.78
2018-03-16T23:53:54.235Z,68.83
2018-03-16T23:56:21.824Z,68.72
2018-03-16T23:58:50.147Z,68.01
